createdAt,value
2019-05-09T00:00:43.936Z,98354.95
2019-05-09T00:03:20.126Z,98356.30
2019-05-09T00:05:56.083Z,98352.63
2019-05-09T00:08:33.533Z,98351.04
2019-05-09T00:11:09.633Z,98343.99
2019-05-09T00:13:45.592Z,98343.28
2019-05-09T00:16:23.575Z,98343.78
2019-05-09T00:18:59.655Z,98342.95
2019-05-09T00:21:39.873Z,98338.60
2019-05-09T00:24:15.877Z,98335.06
2019-05-09T00:26:53.354Z,98330.44
2019-05-09T00:29:33.316Z,98324.27
2019-05-09T00:32:13.756Z,98326.22
2019-05-09T00:34:53.263Z,98324.89
2019-05-09T00:40:20.407Z,98321.67
2019-05-09T00:42:56.232Z,98324.63
2019-05-09T00:45:39.768Z,98317.80
2019-05-09T00:48:17.568Z,98313.95
2019-05-09T00:50:54.458Z,98303.73
2019-05-09T00:53:30.597Z,98304.52
2019-05-09T00:56:06.554Z,98307.53
2019-05-09T00:58:44.111Z,98306.57
2019-05-09T01:01:20.835Z,98303.90
2019-05-09T01:03:56.779Z,98304.02
2019-05-09T01:06:34.081Z,98295.31
2019-05-09T01:09:10.238Z,98302.48
2019-05-09T01:11:46.193Z,98300.09
2019-05-09T01:14:23.394Z,98308.81
2019-05-09T01:16:59.743Z,98300.72
2019-05-09T01:19:35.688Z,98297.06
2019-05-09T01:22:13.167Z,98296.22
2019-05-09T01:24:49.343Z,98294.55
2019-05-09T01:27:25.309Z,98290.34
2019-05-09T01:30:01.265Z,98293.84
2019-05-09T01:32:48.601Z,98290.46
2019-05-09T01:35:24.546Z,98281.13
2019-05-09T01:38:00.490Z,98278.95
2019-05-09T01:40:36.447Z,98287.95
2019-05-09T01:43:13.847Z,98281.28
2019-05-09T01:45:50.112Z,98274.83
2019-05-09T01:48:26.058Z,98274.66
2019-05-09T01:51:03.244Z,98264.98
2019-05-09T01:53:41.055Z,98271.50
2019-05-09T01:56:16.981Z,98266.74
2019-05-09T01:58:53.810Z,98267.29
2019-05-09T02:01:30.141Z,98263.78
2019-05-09T02:04:06.027Z,98264.50
2019-05-09T02:06:43.869Z,98264.00
2019-05-09T02:09:19.660Z,98257.04
2019-05-09T02:11:55.612Z,98254.32
2019-05-09T02:14:34.384Z,98247.15
2019-05-09T02:17:23.144Z,98245.02
2019-05-09T02:19:58.638Z,98240.52
2019-05-09T02:22:35.210Z,98246.94
2019-05-09T02:25:13.142Z,98239.77
2019-05-09T02:27:49.157Z,98237.43
2019-05-09T02:30:25.635Z,98237.43
2019-05-09T02:33:04.832Z,98235.97
2019-05-09T02:35:50.989Z,98234.63
2019-05-09T02:38:20.038Z,98230.96
2019-05-09T02:40:54.881Z,98226.13
2019-05-09T02:43:30.836Z,98230.46
2019-05-09T02:46:09.690Z,98225.50
2019-05-09T02:48:49.359Z,98225.13
2019-05-09T02:51:23.826Z,98221.12
2019-05-09T02:53:59.783Z,98222.95
2019-05-09T02:56:38.397Z,98229.50
2019-05-09T02:59:18.968Z,98226.45
2019-05-09T03:01:59.644Z,98221.08
2019-05-09T03:04:38.905Z,98214.03
2019-05-09T03:07:13.297Z,98211.36
2019-05-09T03:09:49.252Z,98213.83
2019-05-09T03:12:34.499Z,98214.70
2019-05-09T03:15:03.136Z,98211.03
2019-05-09T03:17:39.069Z,98206.82
2019-05-09T03:20:18.197Z,98207.66
2019-05-09T03:22:58.069Z,98204.65
2019-05-09T03:25:33.782Z,98199.94
2019-05-09T03:28:11.291Z,98203.11
2019-05-09T03:30:50.060Z,98202.74
2019-05-09T03:33:29.560Z,98201.06
2019-05-09T03:36:04.167Z,98206.41
2019-05-09T03:38:40.128Z,98198.27
2019-05-09T03:41:17.746Z,98202.95
2019-05-09T03:43:53.879Z,98201.61
2019-05-09T03:46:49.815Z,98204.94
2019-05-09T03:49:25.763Z,98201.77
2019-05-09T03:52:01.727Z,98206.82
2019-05-09T03:54:37.698Z,98208.23
2019-05-09T03:57:18.340Z,98196.36
2019-05-09T03:59:54.305Z,98198.53
2019-05-09T04:02:30.262Z,98197.20
2019-05-09T04:05:08.142Z,98191.52
2019-05-09T04:07:44.325Z,98191.59
2019-05-09T04:10:20.281Z,98192.48
2019-05-09T04:12:59.311Z,98193.68
2019-05-09T04:15:33.925Z,98195.22
2019-05-09T04:18:10.290Z,98186.37
2019-05-09T04:20:48.239Z,98190.38
2019-05-09T04:23:24.068Z,98189.55
2019-05-09T04:26:02.650Z,98190.67
2019-05-09T04:28:39.967Z,98189.60
2019-05-09T04:31:17.778Z,98181.76
2019-05-09T04:33:53.804Z,98194.53
2019-05-09T04:36:38.659Z,98193.90
2019-05-09T04:39:23.441Z,98191.86
2019-05-09T04:41:55.065Z,98195.52
2019-05-09T04:44:37.371Z,98193.48
2019-05-09T04:47:12.007Z,98196.86
2019-05-09T04:49:48.070Z,98192.37
2019-05-09T04:52:24.013Z,98197.08
2019-05-09T04:55:00.087Z,98201.16
2019-05-09T04:57:38.150Z,98200.53
2019-05-09T05:00:18.303Z,98197.66
2019-05-09T05:02:55.142Z,98196.16
2019-05-09T05:05:31.115Z,98199.41
2019-05-09T05:08:07.597Z,98197.87
2019-05-09T05:10:43.725Z,98205.16
2019-05-09T05:13:26.514Z,98201.30
2019-05-09T05:15:57.932Z,98203.13
2019-05-09T05:18:33.947Z,98202.16
2019-05-09T05:21:09.911Z,98197.50
2019-05-09T05:23:50.377Z,98201.16
2019-05-09T05:26:27.678Z,98203.13
2019-05-09T05:29:03.842Z,98209.95
2019-05-09T05:31:39.773Z,98208.83
2019-05-09T05:34:18.242Z,98214.49
2019-05-09T05:36:54.269Z,98214.35
2019-05-09T05:39:30.202Z,98212.25
2019-05-09T05:42:08.296Z,98211.59
2019-05-09T05:44:44.059Z,98207.28
2019-05-09T05:47:38.081Z,98214.77
2019-05-09T05:50:14.567Z,98215.05
2019-05-09T05:52:50.582Z,98215.39
2019-05-09T05:55:27.423Z,98215.17
2019-05-09T05:58:13.516Z,98214.09
2019-05-09T06:00:55.639Z,98213.31
2019-05-09T06:03:31.603Z,98211.27
2019-05-09T06:06:08.762Z,98210.71
2019-05-09T06:08:44.940Z,98209.72
2019-05-09T06:11:20.898Z,98215.98
2019-05-09T06:14:05.110Z,98210.06
2019-05-09T06:20:30.696Z,98215.42
2019-05-09T06:23:49.881Z,98212.08
2019-05-09T06:26:32.884Z,98218.46
2019-05-09T06:38:18.779Z,98213.84
2019-05-09T06:40:55.095Z,98218.24
2019-05-09T06:43:32.594Z,98212.33
2019-05-09T06:46:27.750Z,98211.08
2019-05-09T06:49:21.501Z,98208.08
2019-05-09T06:51:42.779Z,98209.66
2019-05-09T06:54:18.737Z,98214.03
2019-05-09T06:56:54.696Z,98206.78
2019-05-09T06:59:30.648Z,98214.27
2019-05-09T07:02:08.403Z,98210.71
2019-05-09T07:04:47.569Z,98210.93
2019-05-09T07:07:34.402Z,98209.44
2019-05-09T07:10:11.815Z,98211.48
2019-05-09T07:12:48.653Z,98221.25
2019-05-09T07:15:28.166Z,98211.64
2019-05-09T07:18:03.759Z,98210.37
2019-05-09T07:20:39.700Z,98216.29
2019-05-09T07:23:17.733Z,98211.48
2019-05-09T07:25:55.417Z,98215.48
2019-05-09T07:28:31.326Z,98216.69
2019-05-09T07:31:11.668Z,98218.98
2019-05-09T07:33:48.053Z,98216.53
2019-05-09T07:36:24.041Z,98222.73
2019-05-09T07:38:59.998Z,98212.08
2019-05-09T07:41:38.241Z,98213.44
2019-05-09T07:44:13.766Z,98217.03
2019-05-09T07:46:54.123Z,98214.77
2019-05-09T07:49:31.203Z,98213.72
2019-05-09T07:52:10.344Z,98213.62
2019-05-09T07:54:44.862Z,98212.45
2019-05-09T07:57:20.818Z,98214.12
2019-05-09T07:59:58.444Z,98212.78
2019-05-09T08:02:35.593Z,98207.83
2019-05-09T08:05:14.526Z,98213.89
2019-05-09T08:07:50.571Z,98214.27
2019-05-09T08:10:30.624Z,98215.63
2019-05-09T08:13:07.990Z,98213.06
2019-05-09T08:15:41.932Z,98216.84
2019-05-09T08:18:17.889Z,98219.63
2019-05-09T08:20:53.836Z,98216.22
2019-05-09T08:23:29.802Z,98216.22
2019-05-09T08:26:08.490Z,98216.50
2019-05-09T08:28:43.461Z,98216.84
2019-05-09T08:31:19.412Z,98216.22
2019-05-09T08:33:55.356Z,98220.03
2019-05-09T08:36:31.268Z,98218.77
2019-05-09T08:39:08.421Z,98212.08
2019-05-09T08:41:44.555Z,98227.02
2019-05-09T08:44:21.651Z,98226.67
2019-05-09T08:46:57.596Z,98226.30
2019-05-09T08:49:46.533Z,98229.67
2019-05-09T08:52:21.899Z,98220.23
2019-05-09T08:54:59.189Z,98225.27
2019-05-09T08:57:37.394Z,98230.14
2019-05-09T09:00:13.317Z,98220.95
2019-05-09T09:02:50.239Z,98224.55
2019-05-09T09:05:28.662Z,98226.55
2019-05-09T09:08:03.897Z,98219.56
2019-05-09T09:10:39.852Z,98223.90
2019-05-09T09:13:17.511Z,98219.06
2019-05-09T09:16:13.820Z,98213.66
2019-05-09T09:18:31.598Z,98218.00
2019-05-09T09:21:08.209Z,98216.13
2019-05-09T09:23:49.722Z,98225.59
2019-05-09T09:26:23.068Z,98216.96
2019-05-09T09:28:59.019Z,98216.04
2019-05-09T09:31:34.972Z,98216.66
2019-05-09T09:34:11.033Z,98202.80
2019-05-09T09:36:48.030Z,98214.11
2019-05-09T09:39:24.166Z,98208.48
2019-05-09T09:42:00.533Z,98213.41
2019-05-09T09:44:38.782Z,98213.50
2019-05-09T09:47:20.626Z,98209.71
2019-05-09T09:49:55.076Z,98211.05
2019-05-09T09:52:34.285Z,98213.72
2019-05-09T09:55:09.133Z,98208.95
2019-05-09T09:57:45.209Z,98206.28
2019-05-09T10:00:43.930Z,98199.19
2019-05-09T10:03:36.634Z,98197.14
2019-05-09T10:06:12.576Z,98199.56
2019-05-09T10:08:49.092Z,98192.13
2019-05-09T10:11:25.126Z,98195.74
2019-05-09T10:14:01.582Z,98195.22
2019-05-09T10:16:44.897Z,98189.02
2019-05-09T10:19:28.444Z,98194.66
2019-05-09T10:22:23.540Z,98197.37
2019-05-09T10:24:58.403Z,98199.88
2019-05-09T10:27:34.121Z,98202.31
2019-05-09T10:30:10.587Z,98201.11
2019-05-09T10:32:47.623Z,98206.59
2019-05-09T10:35:24.044Z,98200.27
2019-05-09T10:38:00.009Z,98203.58
2019-05-09T10:40:39.427Z,98196.91
2019-05-09T10:43:35.769Z,98198.34
2019-05-09T10:46:19.558Z,98191.66
2019-05-09T10:48:58.609Z,98192.80
2019-05-09T10:51:34.908Z,98181.01
2019-05-09T10:54:10.968Z,98186.18
2019-05-09T10:56:48.706Z,98179.09
2019-05-09T10:59:24.814Z,98181.40
2019-05-09T11:02:00.772Z,98177.08
2019-05-09T11:04:37.913Z,98170.60
2019-05-09T11:07:14.438Z,98160.72
2019-05-09T11:09:50.383Z,98157.28
2019-05-09T11:12:27.581Z,98155.69
2019-05-09T11:15:03.756Z,98152.91
2019-05-09T11:17:39.710Z,98151.77
2019-05-09T11:20:15.642Z,98157.84
2019-05-09T11:22:51.607Z,98155.44
2019-05-09T11:25:27.878Z,98156.09
2019-05-09T11:28:11.188Z,98159.09
2019-05-09T11:30:41.618Z,98162.75
2019-05-09T11:33:18.323Z,98168.11
2019-05-09T11:36:14.837Z,98161.16
2019-05-09T11:45:41.688Z,98167.81
2019-05-09T11:48:18.686Z,98162.26
2019-05-09T11:50:57.738Z,98154.89
2019-05-09T11:53:32.774Z,98158.94
2019-05-09T11:56:08.730Z,98155.42
2019-05-09T11:58:44.686Z,98158.94
2019-05-09T12:01:20.733Z,98153.42
2019-05-09T12:03:57.731Z,98154.59
2019-05-09T12:06:33.988Z,98147.72
2019-05-09T12:09:10.051Z,98161.30
2019-05-09T12:11:48.275Z,98160.78
2019-05-09T12:14:23.690Z,98157.55
2019-05-09T12:16:59.654Z,98154.15
2019-05-09T12:19:38.039Z,98155.63
2019-05-09T12:22:13.625Z,98163.00
2019-05-09T12:24:49.514Z,98164.02
2019-05-09T12:27:27.892Z,98161.66
2019-05-09T12:30:04.875Z,98159.98
2019-05-09T12:32:40.824Z,98159.98
2019-05-09T12:35:59.461Z,98162.63
2019-05-09T12:39:29.367Z,98160.63
2019-05-09T12:42:09.178Z,98151.55
2019-05-09T12:44:45.504Z,98159.24
2019-05-09T12:47:21.458Z,98160.58
2019-05-09T12:50:00.365Z,98157.57
2019-05-09T12:52:35.109Z,98156.05
2019-05-09T12:55:12.914Z,98152.73
2019-05-09T12:57:49.190Z,98163.33
2019-05-09T13:00:25.341Z,98155.48
2019-05-09T13:03:01.405Z,98159.06
2019-05-09T13:05:38.840Z,98153.19
2019-05-09T13:08:15.048Z,98155.73
2019-05-09T13:10:52.131Z,98154.05
2019-05-09T13:13:31.780Z,98159.41
2019-05-09T13:16:14.346Z,98154.39
2019-05-09T13:19:07.250Z,98151.83
2019-05-09T13:21:43.196Z,98155.30
2019-05-09T13:24:19.812Z,98161.97
2019-05-09T13:26:56.052Z,98157.39
2019-05-09T13:29:31.987Z,98159.36
2019-05-09T13:32:08.823Z,98152.12
2019-05-09T13:34:45.045Z,98152.12
2019-05-09T13:37:21.096Z,98154.13
2019-05-09T13:39:57.039Z,98150.91
2019-05-09T13:42:33.510Z,98150.73
2019-05-09T13:45:09.773Z,98155.52
2019-05-09T13:47:47.875Z,98145.30
2019-05-09T13:50:23.426Z,98155.19
2019-05-09T13:52:59.384Z,98150.66
2019-05-09T13:55:37.928Z,98155.33
2019-05-09T13:58:13.407Z,98147.15
2019-05-09T14:00:59.041Z,98142.48
2019-05-09T14:03:29.149Z,98143.02
2019-05-09T14:06:05.107Z,98144.72
2019-05-09T14:08:41.061Z,98151.63
2019-05-09T14:11:19.343Z,98146.47
2019-05-09T14:13:54.827Z,98146.65
2019-05-09T14:16:30.782Z,98145.81
2019-05-09T14:19:26.139Z,98145.97
2019-05-09T14:21:45.051Z,98146.11
2019-05-09T14:24:21.994Z,98146.41
2019-05-09T14:26:58.373Z,98153.65
2019-05-09T14:29:34.460Z,98156.83
2019-05-09T14:32:10.403Z,98153.11
2019-05-09T14:34:48.225Z,98152.75
2019-05-09T14:37:24.065Z,98151.89
2019-05-09T14:40:04.503Z,98156.77
2019-05-09T14:42:39.475Z,98158.95
2019-05-09T14:45:18.031Z,98159.81
2019-05-09T14:47:53.432Z,98164.95
2019-05-09T14:50:29.384Z,98163.26
2019-05-09T14:53:07.872Z,98163.30
2019-05-09T14:55:43.843Z,98164.13
2019-05-09T14:58:19.909Z,98161.09
2019-05-09T15:00:59.413Z,98163.08
2019-05-09T15:03:33.860Z,98167.89
2019-05-09T15:06:09.817Z,98169.05
2019-05-09T15:08:48.098Z,98160.00
2019-05-09T15:11:23.363Z,98168.60
2019-05-09T15:13:59.328Z,98164.45
2019-05-09T15:16:35.287Z,98169.98
2019-05-09T15:19:11.623Z,98163.00
2019-05-09T15:21:48.790Z,98163.18
2019-05-09T15:24:28.508Z,98168.04
2019-05-09T15:27:03.661Z,98167.56
2019-05-09T15:29:39.611Z,98165.91
2019-05-09T15:32:18.103Z,98153.84
2019-05-09T15:34:53.156Z,98155.37
2019-05-09T15:37:29.195Z,98163.73
2019-05-09T15:40:08.403Z,98152.66
2019-05-09T15:42:43.956Z,98154.35
2019-05-09T15:45:19.944Z,98158.55
2019-05-09T15:47:58.181Z,98159.20
2019-05-09T15:50:33.440Z,98162.35
2019-05-09T15:53:09.533Z,98165.06
2019-05-09T15:55:47.851Z,98165.86
2019-05-09T15:58:23.421Z,98164.70
2019-05-09T16:00:59.324Z,98169.48
2019-05-09T16:03:35.396Z,98176.49
2019-05-09T16:06:11.363Z,98180.75
2019-05-09T16:08:47.326Z,98182.33
2019-05-09T16:11:23.267Z,98184.99
2019-05-09T16:13:59.171Z,98184.30
2019-05-09T16:16:35.119Z,98189.98
2019-05-09T16:19:11.009Z,98191.92
2019-05-09T16:21:47.774Z,98192.73
2019-05-09T16:24:23.788Z,98191.52
2019-05-09T16:26:59.702Z,98195.63
2019-05-09T16:29:38.119Z,98202.95
2019-05-09T16:32:13.261Z,98196.02
2019-05-09T16:34:50.172Z,98196.83
2019-05-09T16:37:28.223Z,98200.66
2019-05-09T16:40:05.237Z,98201.30
2019-05-09T16:42:41.162Z,98201.25
2019-05-09T16:45:18.198Z,98207.73
2019-05-09T16:47:54.304Z,98201.05
2019-05-09T16:50:30.219Z,98205.23
2019-05-09T16:53:09.044Z,98206.52
2019-05-09T16:55:43.768Z,98206.71
2019-05-09T16:58:20.686Z,98204.98
2019-05-09T17:00:56.591Z,98212.37
2019-05-09T17:03:32.483Z,98211.98
2019-05-09T17:06:08.533Z,98211.34
2019-05-09T17:08:44.483Z,98205.30
2019-05-09T17:11:20.391Z,98210.98
2019-05-09T17:13:58.419Z,98208.61
2019-05-09T17:16:34.461Z,98203.06
2019-05-09T17:19:10.439Z,98203.91
2019-05-09T17:21:48.240Z,98201.53
2019-05-09T17:24:24.219Z,98200.64
2019-05-09T17:27:00.124Z,98197.78
2019-05-09T17:29:38.268Z,98206.80
2019-05-09T17:32:14.361Z,98204.57
2019-05-09T17:34:50.250Z,98206.05
2019-05-09T17:37:28.561Z,98208.58
2019-05-09T17:40:04.399Z,98200.70
2019-05-09T17:42:40.319Z,98202.53
2019-05-09T17:45:16.437Z,98198.84
2019-05-09T17:47:52.511Z,98198.30
2019-05-09T17:50:28.702Z,98202.56
2019-05-09T17:53:04.658Z,98208.84
2019-05-09T17:55:40.573Z,98204.64
2019-05-09T17:58:29.083Z,98204.07
2019-05-09T18:00:54.231Z,98207.25
2019-05-09T18:03:30.168Z,98207.16
2019-05-09T18:06:08.309Z,98203.64
2019-05-09T18:08:44.050Z,98206.42
2019-05-09T18:11:19.934Z,98203.75
2019-05-09T18:13:55.937Z,98206.92
2019-05-09T18:16:31.918Z,98206.55
2019-05-09T18:19:08.891Z,98203.48
2019-05-09T18:21:50.731Z,98204.81
2019-05-09T18:24:22.684Z,98207.48
2019-05-09T18:26:58.765Z,98205.12
2019-05-09T18:29:37.861Z,98204.84
2019-05-09T18:32:29.742Z,98202.48
2019-05-09T18:35:14.017Z,98206.91
2019-05-09T18:37:50.136Z,98203.70
2019-05-09T18:40:28.210Z,98203.84
2019-05-09T18:43:04.111Z,98211.19
2019-05-09T18:45:40.046Z,98210.81
2019-05-09T18:48:15.966Z,98213.48
2019-05-09T18:50:51.895Z,98214.62
2019-05-09T18:53:27.841Z,98223.05
2019-05-09T18:56:03.757Z,98225.52
2019-05-09T18:58:40.684Z,98218.64
2019-05-09T19:01:16.590Z,98221.61
2019-05-09T19:03:52.542Z,98221.11
2019-05-09T19:06:28.845Z,98225.74
2019-05-09T19:09:07.221Z,98224.70
2019-05-09T19:11:43.175Z,98226.20
2019-05-09T19:14:20.775Z,98232.87
2019-05-09T19:17:14.385Z,98235.80
2019-05-09T19:19:54.801Z,98227.05
2019-05-09T19:22:30.724Z,98237.64
2019-05-09T19:25:07.382Z,98236.55
2019-05-09T19:27:43.294Z,98241.65
2019-05-09T19:30:19.350Z,98245.61
2019-05-09T19:32:55.356Z,98246.86
2019-05-09T19:35:31.431Z,98250.31
2019-05-09T19:38:08.501Z,98246.39
2019-05-09T19:40:44.575Z,98250.64
2019-05-09T19:43:20.523Z,98256.48
2019-05-09T19:45:56.476Z,98259.94
2019-05-09T19:48:32.435Z,98257.76
2019-05-09T19:51:08.396Z,98255.13
2019-05-09T19:53:44.342Z,98250.80
2019-05-09T19:56:20.233Z,98248.96
2019-05-09T19:58:56.222Z,98243.62
2019-05-09T20:01:32.138Z,98246.70
2019-05-09T20:04:08.154Z,98251.12
2019-05-09T20:06:44.040Z,98255.78
2019-05-09T20:09:33.397Z,98258.07
2019-05-09T20:12:16.945Z,98255.19
2019-05-09T20:14:54.294Z,98251.05
2019-05-09T20:17:30.171Z,98246.92
2019-05-09T20:20:07.864Z,98249.59
2019-05-09T20:22:52.367Z,98251.55
2019-05-09T20:25:21.468Z,98257.96
2019-05-09T20:27:57.378Z,98254.70
2019-05-09T20:30:33.363Z,98254.49
2019-05-09T20:33:09.299Z,98254.16
2019-05-09T20:35:45.255Z,98249.38
2019-05-09T20:38:22.328Z,98252.50
2019-05-09T20:40:58.599Z,98253.71
2019-05-09T20:43:34.755Z,98246.92
2019-05-09T20:46:10.921Z,98251.92
2019-05-09T20:48:47.084Z,98254.98
2019-05-09T20:51:23.232Z,98258.27
2019-05-09T20:53:59.409Z,98254.69
2019-05-09T20:56:35.558Z,98254.90
2019-05-09T20:59:11.729Z,98252.89
2019-05-09T21:01:47.878Z,98250.96
2019-05-09T21:04:24.144Z,98261.07
2019-05-09T21:07:00.537Z,98263.86
2019-05-09T21:09:37.203Z,98262.19
2019-05-09T21:12:13.344Z,98263.30
2019-05-09T21:14:49.503Z,98265.59
2019-05-09T21:17:25.871Z,98264.53
2019-05-09T21:20:02.044Z,98261.16
2019-05-09T21:22:38.715Z,98260.72
2019-05-09T21:25:15.075Z,98275.03
2019-05-09T21:27:51.237Z,98275.31
2019-05-09T21:30:27.404Z,98274.70
2019-05-09T21:33:03.576Z,98274.94
2019-05-09T21:35:39.521Z,98276.20
2019-05-09T21:38:15.477Z,98277.31
2019-05-09T21:40:51.422Z,98279.88
2019-05-09T21:43:27.380Z,98280.38
2019-05-09T21:46:03.336Z,98285.33
2019-05-09T21:48:39.304Z,98288.27
2019-05-09T21:51:15.259Z,98290.09
2019-05-09T21:53:51.308Z,98288.31
2019-05-09T21:56:27.262Z,98285.77
2019-05-09T21:59:03.228Z,98288.59
2019-05-09T22:01:39.625Z,98283.16
2019-05-09T22:04:15.548Z,98280.89
2019-05-09T22:06:51.610Z,98283.11
2019-05-09T22:09:27.565Z,98282.66
2019-05-09T22:12:03.749Z,98279.55
2019-05-09T22:14:39.686Z,98279.59
2019-05-09T22:17:17.272Z,98285.91
2019-05-09T22:19:53.227Z,98278.80
2019-05-09T22:22:29.388Z,98279.34
2019-05-09T22:25:08.187Z,98281.05
2019-05-09T22:27:44.166Z,98277.94
2019-05-09T22:30:20.745Z,98282.19
2019-05-09T22:32:56.706Z,98278.70
2019-05-09T22:35:52.513Z,98278.81
2019-05-09T22:38:30.624Z,98283.30
2019-05-09T22:41:06.899Z,98282.58
2019-05-09T22:43:42.854Z,98282.00
2019-05-09T22:46:18.809Z,98280.44
2019-05-09T22:48:54.869Z,98277.55
2019-05-09T22:51:30.759Z,98274.81
2019-05-09T22:54:12.546Z,98275.30
2019-05-09T22:56:44.478Z,98284.26
2019-05-09T22:59:20.424Z,98282.32
2019-05-09T23:01:56.389Z,98280.52
2019-05-09T23:04:32.349Z,98285.49
2019-05-09T23:07:08.292Z,98281.52
2019-05-09T23:09:44.268Z,98285.28
2019-05-09T23:12:20.204Z,98282.53
2019-05-09T23:14:56.367Z,98289.29
2019-05-09T23:17:32.437Z,98284.72
2019-05-09T23:20:10.656Z,98280.24
2019-05-09T23:22:46.792Z,98278.45
2019-05-09T23:25:22.751Z,98284.71
2019-05-09T23:27:58.705Z,98278.20
2019-05-09T23:30:34.664Z,98278.20
2019-05-09T23:33:10.631Z,98278.22
2019-05-09T23:35:46.589Z,98272.66
2019-05-09T23:38:22.534Z,98273.27
2019-05-09T23:40:58.542Z,98273.52
2019-05-09T23:43:34.446Z,98271.95
2019-05-09T23:46:10.406Z,98269.31
2019-05-09T23:48:46.322Z,98272.81
2019-05-09T23:51:22.633Z,98268.21
2019-05-09T23:53:57.724Z,98271.02
2019-05-09T23:56:51.441Z,98274.77
2019-05-09T23:59:45.317Z,98280.68
